ADDS METAR Data INFO
IDs: Format: Raw Decoded Include TAF

Data at: 1321 UTC 19 Jul 2018

KCSG 191251Z 10006KT 10SM BKN100 25/23 A2996 RMK AO2 SLP138 T02500228
KCSG 191151Z AUTO 13003KT 10SM BKN100 25/23 A2995 RMK AO2 SLP135 T02500228 10261 20244 53014
KCSG 191051Z AUTO 00000KT 10SM FEW100 25/23 A2993 RMK AO2 SLP129 T02500228
KCSG 190951Z AUTO 07003KT 10SM FEW100 24/23 A2991 RMK AO2 SLP122 T02440228
KCSG 190851Z AUTO 10003KT 10SM CLR 24/23 A2991 RMK AO2 SLP121 T02440233 55004
KCSG 190751Z AUTO 08004KT 10SM CLR 26/23 A2990 RMK AO2 SLP118 T02560233
KCSG 190651Z AUTO 29003KT 10SM CLR 26/24 A2990 RMK AO2 SLP118 T02610239
KCSG 190551Z AUTO 11004KT 10SM CLR 26/23 A2992 RMK AO2 SLP125 T02610233 10306 20261 56007
KCSG 190527Z AUTO 00000KT 10SM SCT026 26/23 A2992 RMK AO2 T02610233
KCSG 190504Z AUTO 15005KT 10SM BKN025 27/24 A2993 RMK AO2 T02670244
KCSG 190451Z AUTO 14005KT 10SM FEW023 SCT055 SCT075 26/24 A2993 RMK AO2 SLP129 T02610239 403330239
KCSG 190351Z AUTO 07003KT 10SM CLR 27/24 A2993 RMK AO2 LTG DSNT E SLP129 T02720239
KCSG 190251Z AUTO 00000KT 10SM FEW100 29/24 A2994 RMK AO2 SLP132 T02890239 53015
KCSG 190151Z AUTO 29004KT 10SM CLR 29/24 A2993 RMK AO2 SLP128 T02890239
KCSG 190051Z 26004KT 10SM FEW120 29/23 A2990 RMK AO2 SLP119 T02890233
KCSG 182351Z 28004KT 10SM OVC110 31/23 A2990 RMK AO2 SLP118 60000 T03060228 10333 20278 53001
KCSG 182251Z 27005KT 10SM CLR 31/23 A2988 RMK AO2 LTG DSNT SE SLP113 T03060228
KCSG 182151Z 32006KT 10SM CLR 31/22 A2990 RMK AO2 SLP119 T03060217
KCSG 182051Z 00000KT 10SM CLR 31/23 A2989 RMK AO2 LTG DSNT N RAE11 SLP116 P0000 60000 T03110228 58018
KCSG 181951Z 29008KT 10SM -RA SCT080 SCT100 28/22 A2992 RMK AO2 LTG DSNT NW RAB43 SLP126 P0000 T02830217
KCSG 181851Z 35007KT 10SM FEW080 FEW100 30/21 A2994 RMK AO2 LTG DSNT W TSB05E33 SLP132 T03000206
KCSG 181839Z 02008KT 10SM SCT038 BKN080 BKN100 30/21 A2994 RMK AO2 LTG DSNT W AND NW TSB05E33 T03000211
KCSG 181811Z VRB06KT 10SM TS BKN040 33/22 A2994 RMK AO2 LTG DSNT W TSB05 T03280222
KCSG 181751Z 29003KT 10SM SCT036 33/23 A2995 RMK AO2 LTG DSNT NW SLP135 T03330228 10333 20244 58010
KCSG 181651Z 27004KT 10SM BKN032 31/24 A2997 RMK AO2 SLP142 T03110239
KCSG 181551Z 00000KT 10SM FEW026 31/23 A2998 RMK AO2 SLP145 T03110233
KCSG 181451Z 33006KT 10SM CLR 30/23 A2998 RMK AO2 SLP146 T03000233 58002
KCSG 181351Z 32004KT 10SM CLR 29/23 A2999 RMK AO2 SLP149 T02890233
KCSG 181251Z 00000KT 10SM CLR 27/23 A2999 RMK AO2 SLP151 T02670233
KCSG 181230Z AUTO 29004KT 10SM SCT005 26/23 A2999 RMK AO2 T02560233
KCSG 181151Z AUTO 28004KT 8SM OVC005 24/23 A2999 RMK AO2 SLP148 T02440233 10256 20239 53011
KCSG 181141Z AUTO 24003KT 7SM BKN005 24/23 A2998 RMK AO2 T02390233
KCSG 181118Z AUTO 30005KT 8SM BKN004 24/23 A2998 RMK AO2 T02390228
KCSG 181051Z AUTO 25003KT 9SM OVC005 24/23 A2997 RMK AO2 SLP143 T02390228
KCSG 181012Z AUTO 24004KT 10SM BKN006 24/23 A2996 RMK AO2 T02390228
KCSG 181003Z AUTO 23006KT 10SM SCT007 24/23 A2996 RMK AO2 T02390228
KCSG 180951Z AUTO 24005KT 10SM FEW008 24/23 A2996 RMK AO2 SLP139 T02390228
KCSG 180942Z AUTO 23003KT 10SM FEW007 24/23 A2996 RMK AO2 T02440228
KCSG 180851Z AUTO 00000KT 10SM CLR 24/23 A2995 RMK AO2 SLP137 T02440228 56009
KCSG 180751Z AUTO 26003KT 10SM CLR 24/23 A2996 RMK AO2 SLP139 T02440228
KCSG 180651Z AUTO 26004KT 10SM SCT037 25/23 A2997 RMK AO2 SLP142 T02500228
KCSG 180551Z AUTO 23006KT 10SM SCT031 26/23 A2998 RMK AO2 SLP146 T02560228 10317 20256 55001
KCSG 180451Z AUTO 24007KT 10SM CLR 26/23 A2997 RMK AO2 SLP143 T02610233 403330239
KCSG 180351Z AUTO 32005KT 10SM CLR 27/23 A2997 RMK AO2 SLP141 T02720233
KCSG 180251Z AUTO 27006KT 10SM CLR 28/24 A2998 RMK AO2 SLP147 T02830239 53010
KCSG 180151Z AUTO 28004KT 10SM CLR 29/24 A2997 RMK AO2 SLP142 T02940239